sensor_id;sensor_type;location;lat;lon;timestamp;P1;durP1;ratioP1;P2;durP2;ratioP2
16330;SDS011;8275;48.206;16.340;2022-07-29T00:01:39;3.05;;;2.60;;
16330;SDS011;8275;48.206;16.340;2022-07-29T00:04:09;3.03;;;2.00;;
16330;SDS011;8275;48.206;16.340;2022-07-29T00:06:39;2.55;;;2.35;;
16330;SDS011;8275;48.206;16.340;2022-07-29T00:09:09;4.43;;;3.95;;
16330;SDS011;8275;48.206;16.340;2022-07-29T00:11:38;2.47;;;2.33;;
16330;SDS011;8275;48.206;16.340;2022-07-29T00:14:06;2.50;;;2.40;;
16330;SDS011;8275;48.206;16.340;2022-07-29T00:16:35;2.83;;;2.63;;
16330;SDS011;8275;48.206;16.340;2022-07-29T00:19:04;2.55;;;2.35;;
16330;SDS011;8275;48.206;16.340;2022-07-29T00:21:33;2.53;;;2.33;;
16330;SDS011;8275;48.206;16.340;2022-07-29T00:24:01;3.08;;;2.78;;
16330;SDS011;8275;48.206;16.340;2022-07-29T00:26:31;3.08;;;2.78;;
16330;SDS011;8275;48.206;16.340;2022-07-29T00:29:00;2.05;;;1.85;;
16330;SDS011;8275;48.206;16.340;2022-07-29T00:31:50;2.58;;;2.38;;
16330;SDS011;8275;48.206;16.340;2022-07-29T00:34:19;3.10;;;2.90;;
16330;SDS011;8275;48.206;16.340;2022-07-29T00:37:04;2.60;;;2.40;;
16330;SDS011;8275;48.206;16.340;2022-07-29T00:39:33;2.95;;;2.75;;
16330;SDS011;8275;48.206;16.340;2022-07-29T00:42:03;4.47;;;3.90;;
16330;SDS011;8275;48.206;16.340;2022-07-29T00:44:35;2.80;;;2.40;;
16330;SDS011;8275;48.206;16.340;2022-07-29T00:47:05;2.70;;;2.50;;
16330;SDS011;8275;48.206;16.340;2022-07-29T00:49:35;2.58;;;2.38;;
16330;SDS011;8275;48.206;16.340;2022-07-29T00:52:05;2.92;;;2.72;;
16330;SDS011;8275;48.206;16.340;2022-07-29T00:54:36;3.90;;;3.08;;
16330;SDS011;8275;48.206;16.340;2022-07-29T00:57:11;2.55;;;2.13;;
16330;SDS011;8275;48.206;16.340;2022-07-29T00:59:40;3.33;;;2.83;;
16330;SDS011;8275;48.206;16.340;2022-07-29T01:02:09;6.18;;;2.47;;
16330;SDS011;8275;48.206;16.340;2022-07-29T01:04:37;2.65;;;2.45;;
16330;SDS011;8275;48.206;16.340;2022-07-29T01:07:06;2.75;;;2.55;;
16330;SDS011;8275;48.206;16.340;2022-07-29T01:09:35;2.95;;;2.65;;
16330;SDS011;8275;48.206;16.340;2022-07-29T01:12:13;6.07;;;2.88;;
16330;SDS011;8275;48.206;16.340;2022-07-29T01:14:46;2.63;;;2.42;;
16330;SDS011;8275;48.206;16.340;2022-07-29T01:17:17;2.97;;;2.33;;
16330;SDS011;8275;48.206;16.340;2022-07-29T01:19:53;3.45;;;3.15;;
16330;SDS011;8275;48.206;16.340;2022-07-29T01:22:35;11.32;;;2.67;;
16330;SDS011;8275;48.206;16.340;2022-07-29T01:25:32;2.28;;;2.15;;
16330;SDS011;8275;48.206;16.340;2022-07-29T01:28:42;3.13;;;2.83;;
16330;SDS011;8275;48.206;16.340;2022-07-29T01:31:31;3.75;;;2.47;;
16330;SDS011;8275;48.206;16.340;2022-07-29T01:34:27;2.08;;;1.98;;
16330;SDS011;8275;48.206;16.340;2022-07-29T01:37:05;6.20;;;2.88;;
16330;SDS011;8275;48.206;16.340;2022-07-29T01:39:42;3.08;;;2.88;;
16330;SDS011;8275;48.206;16.340;2022-07-29T01:42:15;2.95;;;2.63;;
16330;SDS011;8275;48.206;16.340;2022-07-29T01:44:53;2.15;;;2.05;;
16330;SDS011;8275;48.206;16.340;2022-07-29T01:47:31;3.53;;;3.17;;
16330;SDS011;8275;48.206;16.340;2022-07-29T01:50:07;4.28;;;2.55;;
16330;SDS011;8275;48.206;16.340;2022-07-29T01:52:42;3.53;;;3.22;;
16330;SDS011;8275;48.206;16.340;2022-07-29T01:55:17;2.38;;;2.17;;
16330;SDS011;8275;48.206;16.340;2022-07-29T01:57:47;3.50;;;2.50;;
16330;SDS011;8275;48.206;16.340;2022-07-29T02:00:19;2.60;;;2.40;;
16330;SDS011;8275;48.206;16.340;2022-07-29T02:02:49;6.05;;;2.53;;
16330;SDS011;8275;48.206;16.340;2022-07-29T02:05:20;2.70;;;2.50;;
16330;SDS011;8275;48.206;16.340;2022-07-29T02:07:50;2.38;;;2.17;;
16330;SDS011;8275;48.206;16.340;2022-07-29T02:10:21;3.22;;;2.92;;
16330;SDS011;8275;48.206;16.340;2022-07-29T02:12:54;3.35;;;3.00;;
16330;SDS011;8275;48.206;16.340;2022-07-29T02:15:27;3.17;;;2.97;;
16330;SDS011;8275;48.206;16.340;2022-07-29T02:18:01;3.08;;;2.70;;
16330;SDS011;8275;48.206;16.340;2022-07-29T02:20:34;3.90;;;3.05;;
16330;SDS011;8275;48.206;16.340;2022-07-29T02:23:05;3.25;;;2.95;;
16330;SDS011;8275;48.206;16.340;2022-07-29T02:25:37;3.03;;;2.83;;
16330;SDS011;8275;48.206;16.340;2022-07-29T02:28:08;3.00;;;2.20;;
16330;SDS011;8275;48.206;16.340;2022-07-29T02:30:39;2.47;;;2.28;;
16330;SDS011;8275;48.206;16.340;2022-07-29T02:33:10;3.10;;;2.72;;
16330;SDS011;8275;48.206;16.340;2022-07-29T02:35:43;2.88;;;2.67;;
16330;SDS011;8275;48.206;16.340;2022-07-29T02:38:14;2.97;;;2.70;;
16330;SDS011;8275;48.206;16.340;2022-07-29T02:41:03;3.90;;;3.60;;
16330;SDS011;8275;48.206;16.340;2022-07-29T02:43:37;6.47;;;2.72;;
16330;SDS011;8275;48.206;16.340;2022-07-29T02:46:11;3.15;;;2.85;;
16330;SDS011;8275;48.206;16.340;2022-07-29T02:48:55;2.80;;;2.60;;
16330;SDS011;8275;48.206;16.340;2022-07-29T02:51:33;4.03;;;3.08;;
16330;SDS011;8275;48.206;16.340;2022-07-29T02:54:10;3.80;;;2.60;;
16330;SDS011;8275;48.206;16.340;2022-07-29T02:56:47;3.83;;;2.70;;
16330;SDS011;8275;48.206;16.340;2022-07-29T02:59:19;3.45;;;3.25;;
16330;SDS011;8275;48.206;16.340;2022-07-29T03:01:55;4.03;;;2.92;;
16330;SDS011;8275;48.206;16.340;2022-07-29T03:04:27;4.03;;;3.70;;
16330;SDS011;8275;48.206;16.340;2022-07-29T03:06:58;4.03;;;2.70;;
16330;SDS011;8275;48.206;16.340;2022-07-29T03:09:28;6.57;;;3.42;;
16330;SDS011;8275;48.206;16.340;2022-07-29T03:11:58;3.00;;;2.80;;
16330;SDS011;8275;48.206;16.340;2022-07-29T03:14:29;3.47;;;3.17;;
16330;SDS011;8275;48.206;16.340;2022-07-29T03:17:00;4.93;;;3.67;;
16330;SDS011;8275;48.206;16.340;2022-07-29T03:19:29;3.65;;;3.35;;
16330;SDS011;8275;48.206;16.340;2022-07-29T03:22:00;2.90;;;2.70;;
16330;SDS011;8275;48.206;16.340;2022-07-29T03:24:30;8.65;;;2.95;;
16330;SDS011;8275;48.206;16.340;2022-07-29T03:27:00;3.88;;;3.58;;
16330;SDS011;8275;48.206;16.340;2022-07-29T03:29:28;2.92;;;2.72;;
16330;SDS011;8275;48.206;16.340;2022-07-29T03:32:01;3.60;;;3.30;;
16330;SDS011;8275;48.206;16.340;2022-07-29T03:34:33;4.25;;;2.92;;
16330;SDS011;8275;48.206;16.340;2022-07-29T03:37:03;3.30;;;3.10;;
16330;SDS011;8275;48.206;16.340;2022-07-29T03:39:34;3.92;;;3.65;;
16330;SDS011;8275;48.206;16.340;2022-07-29T03:42:08;3.85;;;2.63;;
16330;SDS011;8275;48.206;16.340;2022-07-29T03:44:41;4.80;;;2.80;;
16330;SDS011;8275;48.206;16.340;2022-07-29T03:47:16;3.70;;;3.40;;
16330;SDS011;8275;48.206;16.340;2022-07-29T03:50:12;2.63;;;2.33;;
16330;SDS011;8275;48.206;16.340;2022-07-29T03:52:42;3.25;;;3.05;;
16330;SDS011;8275;48.206;16.340;2022-07-29T03:55:11;3.08;;;2.85;;
16330;SDS011;8275;48.206;16.340;2022-07-29T03:57:40;3.95;;;2.67;;
16330;SDS011;8275;48.206;16.340;2022-07-29T04:00:11;3.55;;;3.20;;
16330;SDS011;8275;48.206;16.340;2022-07-29T04:02:43;3.38;;;3.05;;
16330;SDS011;8275;48.206;16.340;2022-07-29T04:05:15;3.80;;;3.05;;
16330;SDS011;8275;48.206;16.340;2022-07-29T04:07:45;2.88;;;2.67;;
16330;SDS011;8275;48.206;16.340;2022-07-29T04:10:14;4.07;;;3.67;;
16330;SDS011;8275;48.206;16.340;2022-07-29T04:12:57;4.70;;;4.05;;
16330;SDS011;8275;48.206;16.340;2022-07-29T04:15:26;3.05;;;2.85;;
16330;SDS011;8275;48.206;16.340;2022-07-29T04:17:58;3.72;;;3.42;;
16330;SDS011;8275;48.206;16.340;2022-07-29T04:20:27;3.45;;;2.72;;
16330;SDS011;8275;48.206;16.340;2022-07-29T04:22:55;4.43;;;3.08;;
16330;SDS011;8275;48.206;16.340;2022-07-29T04:25:23;3.33;;;3.03;;
16330;SDS011;8275;48.206;16.340;2022-07-29T04:27:52;3.38;;;3.10;;
16330;SDS011;8275;48.206;16.340;2022-07-29T04:30:30;4.20;;;3.55;;
16330;SDS011;8275;48.206;16.340;2022-07-29T04:33:01;3.05;;;2.63;;
16330;SDS011;8275;48.206;16.340;2022-07-29T04:35:33;3.55;;;3.20;;
16330;SDS011;8275;48.206;16.340;2022-07-29T04:38:17;7.65;;;3.50;;
16330;SDS011;8275;48.206;16.340;2022-07-29T04:40:45;3.05;;;2.85;;
16330;SDS011;8275;48.206;16.340;2022-07-29T04:43:15;4.43;;;3.53;;
16330;SDS011;8275;48.206;16.340;2022-07-29T04:45:48;3.65;;;3.35;;
16330;SDS011;8275;48.206;16.340;2022-07-29T04:48:18;4.72;;;3.05;;
16330;SDS011;8275;48.206;16.340;2022-07-29T04:50:53;3.83;;;3.45;;
16330;SDS011;8275;48.206;16.340;2022-07-29T04:53:22;3.70;;;3.38;;
16330;SDS011;8275;48.206;16.340;2022-07-29T04:55:51;14.65;;;3.63;;
16330;SDS011;8275;48.206;16.340;2022-07-29T04:58:19;5.13;;;4.03;;
16330;SDS011;8275;48.206;16.340;2022-07-29T05:00:49;4.38;;;4.00;;
16330;SDS011;8275;48.206;16.340;2022-07-29T05:03:19;3.92;;;3.63;;
16330;SDS011;8275;48.206;16.340;2022-07-29T05:05:48;4.97;;;3.58;;
16330;SDS011;8275;48.206;16.340;2022-07-29T05:08:16;3.65;;;3.35;;
16330;SDS011;8275;48.206;16.340;2022-07-29T05:10:44;3.25;;;3.03;;
16330;SDS011;8275;48.206;16.340;2022-07-29T05:13:13;3.78;;;3.28;;
16330;SDS011;8275;48.206;16.340;2022-07-29T05:15:42;3.10;;;2.85;;
16330;SDS011;8275;48.206;16.340;2022-07-29T05:18:11;5.30;;;4.22;;
16330;SDS011;8275;48.206;16.340;2022-07-29T05:20:41;3.35;;;3.15;;
16330;SDS011;8275;48.206;16.340;2022-07-29T05:23:09;4.97;;;4.55;;
16330;SDS011;8275;48.206;16.340;2022-07-29T05:25:39;4.88;;;3.45;;
16330;SDS011;8275;48.206;16.340;2022-07-29T05:28:10;5.05;;;3.95;;
16330;SDS011;8275;48.206;16.340;2022-07-29T05:30:38;3.97;;;3.50;;
16330;SDS011;8275;48.206;16.340;2022-07-29T05:33:07;3.92;;;3.63;;
16330;SDS011;8275;48.206;16.340;2022-07-29T05:35:56;4.05;;;3.72;;
16330;SDS011;8275;48.206;16.340;2022-07-29T05:38:26;4.22;;;3.88;;
16330;SDS011;8275;48.206;16.340;2022-07-29T05:40:56;3.35;;;3.15;;
16330;SDS011;8275;48.206;16.340;2022-07-29T05:43:26;3.70;;;3.40;;
16330;SDS011;8275;48.206;16.340;2022-07-29T05:45:55;5.40;;;4.03;;
16330;SDS011;8275;48.206;16.340;2022-07-29T05:48:24;3.58;;;3.30;;
16330;SDS011;8275;48.206;16.340;2022-07-29T05:50:52;4.68;;;4.28;;
16330;SDS011;8275;48.206;16.340;2022-07-29T05:53:23;6.53;;;4.40;;
16330;SDS011;8275;48.206;16.340;2022-07-29T05:55:51;5.82;;;3.97;;
16330;SDS011;8275;48.206;16.340;2022-07-29T05:58:20;4.47;;;3.75;;
16330;SDS011;8275;48.206;16.340;2022-07-29T06:00:49;3.15;;;2.85;;
16330;SDS011;8275;48.206;16.340;2022-07-29T06:03:17;3.95;;;3.58;;
16330;SDS011;8275;48.206;16.340;2022-07-29T06:05:46;3.22;;;3.00;;
16330;SDS011;8275;48.206;16.340;2022-07-29T06:08:14;4.30;;;3.97;;
16330;SDS011;8275;48.206;16.340;2022-07-29T06:10:45;4.47;;;4.10;;
16330;SDS011;8275;48.206;16.340;2022-07-29T06:13:13;4.97;;;3.65;;
16330;SDS011;8275;48.206;16.340;2022-07-29T06:15:42;3.47;;;3.17;;
16330;SDS011;8275;48.206;16.340;2022-07-29T06:18:11;3.55;;;3.22;;
16330;SDS011;8275;48.206;16.340;2022-07-29T06:20:40;4.38;;;3.65;;
16330;SDS011;8275;48.206;16.340;2022-07-29T06:23:09;3.30;;;3.10;;
16330;SDS011;8275;48.206;16.340;2022-07-29T06:25:37;3.97;;;3.67;;
16330;SDS011;8275;48.206;16.340;2022-07-29T06:28:09;3.92;;;2.95;;
16330;SDS011;8275;48.206;16.340;2022-07-29T06:30:37;3.38;;;2.90;;
16330;SDS011;8275;48.206;16.340;2022-07-29T06:33:06;4.47;;;3.92;;
16330;SDS011;8275;48.206;16.340;2022-07-29T06:35:35;3.60;;;3.30;;
16330;SDS011;8275;48.206;16.340;2022-07-29T06:38:07;4.75;;;3.70;;
16330;SDS011;8275;48.206;16.340;2022-07-29T06:40:57;4.28;;;3.63;;
16330;SDS011;8275;48.206;16.340;2022-07-29T06:43:32;4.82;;;4.38;;
16330;SDS011;8275;48.206;16.340;2022-07-29T06:46:18;4.60;;;3.88;;
16330;SDS011;8275;48.206;16.340;2022-07-29T06:48:47;6.28;;;5.68;;
16330;SDS011;8275;48.206;16.340;2022-07-29T06:51:17;4.10;;;3.80;;
16330;SDS011;8275;48.206;16.340;2022-07-29T06:53:48;3.80;;;3.28;;
16330;SDS011;8275;48.206;16.340;2022-07-29T06:56:28;3.88;;;3.55;;
16330;SDS011;8275;48.206;16.340;2022-07-29T06:59:06;4.43;;;4.03;;
16330;SDS011;8275;48.206;16.340;2022-07-29T07:01:37;3.28;;;3.08;;
16330;SDS011;8275;48.206;16.340;2022-07-29T07:04:07;3.33;;;3.03;;
16330;SDS011;8275;48.206;16.340;2022-07-29T07:06:36;4.28;;;3.28;;
16330;SDS011;8275;48.206;16.340;2022-07-29T07:09:05;3.40;;;3.20;;
16330;SDS011;8275;48.206;16.340;2022-07-29T07:11:34;4.55;;;3.40;;
16330;SDS011;8275;48.206;16.340;2022-07-29T07:14:02;6.30;;;3.30;;
16330;SDS011;8275;48.206;16.340;2022-07-29T07:16:32;3.38;;;3.17;;
16330;SDS011;8275;48.206;16.340;2022-07-29T07:19:01;3.35;;;3.15;;
16330;SDS011;8275;48.206;16.340;2022-07-29T07:21:30;7.47;;;4.05;;
16330;SDS011;8275;48.206;16.340;2022-07-29T07:24:01;5.10;;;3.38;;
16330;SDS011;8275;48.206;16.340;2022-07-29T07:26:30;4.57;;;3.80;;
16330;SDS011;8275;48.206;16.340;2022-07-29T07:28:58;4.10;;;3.40;;
16330;SDS011;8275;48.206;16.340;2022-07-29T07:31:26;3.50;;;3.05;;
16330;SDS011;8275;48.206;16.340;2022-07-29T07:33:56;4.47;;;4.07;;
16330;SDS011;8275;48.206;16.340;2022-07-29T07:36:25;5.80;;;4.25;;
16330;SDS011;8275;48.206;16.340;2022-07-29T07:38:53;5.63;;;4.18;;
16330;SDS011;8275;48.206;16.340;2022-07-29T07:41:22;3.53;;;3.22;;
16330;SDS011;8275;48.206;16.340;2022-07-29T07:43:50;3.75;;;3.45;;
16330;SDS011;8275;48.206;16.340;2022-07-29T07:46:19;3.35;;;3.05;;
16330;SDS011;8275;48.206;16.340;2022-07-29T07:48:47;3.83;;;3.33;;
16330;SDS011;8275;48.206;16.340;2022-07-29T07:51:17;3.83;;;3.53;;
16330;SDS011;8275;48.206;16.340;2022-07-29T07:53:46;3.33;;;3.13;;
16330;SDS011;8275;48.206;16.340;2022-07-29T07:56:15;3.22;;;3.03;;
16330;SDS011;8275;48.206;16.340;2022-07-29T07:58:44;5.63;;;4.13;;
16330;SDS011;8275;48.206;16.340;2022-07-29T08:01:12;3.60;;;3.35;;
16330;SDS011;8275;48.206;16.340;2022-07-29T08:03:44;4.28;;;3.90;;
16330;SDS011;8275;48.206;16.340;2022-07-29T08:06:12;4.47;;;4.18;;
16330;SDS011;8275;48.206;16.340;2022-07-29T08:08:42;7.22;;;3.60;;
16330;SDS011;8275;48.206;16.340;2022-07-29T08:11:11;3.78;;;3.47;;
16330;SDS011;8275;48.206;16.340;2022-07-29T08:13:39;3.30;;;3.08;;
16330;SDS011;8275;48.206;16.340;2022-07-29T08:16:08;3.42;;;3.13;;
16330;SDS011;8275;48.206;16.340;2022-07-29T08:18:40;3.78;;;3.47;;
16330;SDS011;8275;48.206;16.340;2022-07-29T08:21:11;4.28;;;3.97;;
16330;SDS011;8275;48.206;16.340;2022-07-29T08:23:42;5.78;;;3.88;;
16330;SDS011;8275;48.206;16.340;2022-07-29T08:26:27;3.60;;;3.40;;
16330;SDS011;8275;48.206;16.340;2022-07-29T08:28:55;4.20;;;3.90;;
16330;SDS011;8275;48.206;16.340;2022-07-29T08:31:23;3.95;;;3.65;;
16330;SDS011;8275;48.206;16.340;2022-07-29T08:33:52;4.20;;;3.65;;
16330;SDS011;8275;48.206;16.340;2022-07-29T08:36:22;3.40;;;3.05;;
16330;SDS011;8275;48.206;16.340;2022-07-29T08:38:52;4.32;;;4.03;;
16330;SDS011;8275;48.206;16.340;2022-07-29T08:41:21;4.45;;;3.42;;
16330;SDS011;8275;48.206;16.340;2022-07-29T08:43:50;3.53;;;3.30;;
16330;SDS011;8275;48.206;16.340;2022-07-29T08:46:19;4.03;;;3.72;;
16330;SDS011;8275;48.206;16.340;2022-07-29T08:48:49;3.78;;;3.22;;
16330;SDS011;8275;48.206;16.340;2022-07-29T08:51:18;4.53;;;4.13;;
16330;SDS011;8275;48.206;16.340;2022-07-29T08:53:48;3.67;;;3.38;;
16330;SDS011;8275;48.206;16.340;2022-07-29T08:56:19;3.33;;;3.03;;
16330;SDS011;8275;48.206;16.340;2022-07-29T08:58:48;3.60;;;3.30;;
16330;SDS011;8275;48.206;16.340;2022-07-29T09:01:21;3.38;;;3.17;;
16330;SDS011;8275;48.206;16.340;2022-07-29T09:04:02;3.75;;;3.45;;
16330;SDS011;8275;48.206;16.340;2022-07-29T09:06:34;7.13;;;3.47;;
16330;SDS011;8275;48.206;16.340;2022-07-29T09:09:07;3.28;;;3.08;;
16330;SDS011;8275;48.206;16.340;2022-07-29T09:11:37;3.75;;;3.45;;
16330;SDS011;8275;48.206;16.340;2022-07-29T09:14:05;3.58;;;3.28;;
16330;SDS011;8275;48.206;16.340;2022-07-29T09:16:44;3.63;;;3.20;;
16330;SDS011;8275;48.206;16.340;2022-07-29T09:19:20;4.75;;;4.35;;
16330;SDS011;8275;48.206;16.340;2022-07-29T09:21:55;3.83;;;3.53;;
16330;SDS011;8275;48.206;16.340;2022-07-29T09:24:36;2.67;;;2.47;;
16330;SDS011;8275;48.206;16.340;2022-07-29T09:27:18;3.88;;;3.58;;
16330;SDS011;8275;48.206;16.340;2022-07-29T09:29:55;3.25;;;3.05;;
16330;SDS011;8275;48.206;16.340;2022-07-29T09:32:25;5.85;;;4.03;;
16330;SDS011;8275;48.206;16.340;2022-07-29T09:35:14;4.47;;;3.83;;
16330;SDS011;8275;48.206;16.340;2022-07-29T09:37:48;3.85;;;3.65;;
16330;SDS011;8275;48.206;16.340;2022-07-29T09:40:17;3.88;;;3.58;;
16330;SDS011;8275;48.206;16.340;2022-07-29T09:42:49;3.40;;;3.20;;
16330;SDS011;8275;48.206;16.340;2022-07-29T09:45:28;5.88;;;3.10;;
16330;SDS011;8275;48.206;16.340;2022-07-29T09:47:59;3.85;;;3.55;;
16330;SDS011;8275;48.206;16.340;2022-07-29T09:50:43;3.50;;;3.17;;
16330;SDS011;8275;48.206;16.340;2022-07-29T09:53:29;3.15;;;2.85;;
16330;SDS011;8275;48.206;16.340;2022-07-29T09:55:59;2.90;;;2.70;;
16330;SDS011;8275;48.206;16.340;2022-07-29T09:58:29;3.50;;;3.22;;
16330;SDS011;8275;48.206;16.340;2022-07-29T10:00:59;4.65;;;4.22;;
16330;SDS011;8275;48.206;16.340;2022-07-29T10:03:29;5.50;;;3.10;;
16330;SDS011;8275;48.206;16.340;2022-07-29T10:06:04;6.10;;;3.58;;
16330;SDS011;8275;48.206;16.340;2022-07-29T10:08:35;4.22;;;3.67;;
16330;SDS011;8275;48.206;16.340;2022-07-29T10:11:10;3.30;;;3.10;;
16330;SDS011;8275;48.206;16.340;2022-07-29T10:13:42;4.07;;;3.17;;
16330;SDS011;8275;48.206;16.340;2022-07-29T10:16:13;4.80;;;4.40;;
16330;SDS011;8275;48.206;16.340;2022-07-29T10:18:44;3.50;;;3.20;;
16330;SDS011;8275;48.206;16.340;2022-07-29T10:21:13;3.38;;;3.17;;
16330;SDS011;8275;48.206;16.340;2022-07-29T10:24:01;3.00;;;2.80;;
16330;SDS011;8275;48.206;16.340;2022-07-29T10:26:31;4.20;;;3.92;;
16330;SDS011;8275;48.206;16.340;2022-07-29T10:29:01;3.60;;;3.40;;
16330;SDS011;8275;48.206;16.340;2022-07-29T10:31:36;4.95;;;3.80;;
16330;SDS011;8275;48.206;16.340;2022-07-29T10:34:13;3.38;;;3.17;;
16330;SDS011;8275;48.206;16.340;2022-07-29T10:36:52;3.17;;;2.97;;
16330;SDS011;8275;48.206;16.340;2022-07-29T10:39:33;3.60;;;3.40;;
16330;SDS011;8275;48.206;16.340;2022-07-29T10:42:18;3.50;;;3.20;;
16330;SDS011;8275;48.206;16.340;2022-07-29T10:45:01;7.90;;;3.55;;
16330;SDS011;8275;48.206;16.340;2022-07-29T10:47:32;4.55;;;3.58;;
16330;SDS011;8275;48.206;16.340;2022-07-29T10:50:02;6.88;;;4.72;;
16330;SDS011;8275;48.206;16.340;2022-07-29T10:52:53;4.18;;;3.83;;
16330;SDS011;8275;48.206;16.340;2022-07-29T10:55:33;3.97;;;3.67;;
16330;SDS011;8275;48.206;16.340;2022-07-29T10:58:12;3.95;;;3.35;;
16330;SDS011;8275;48.206;16.340;2022-07-29T11:00:45;4.13;;;3.83;;
16330;SDS011;8275;48.206;16.340;2022-07-29T11:06:17;3.67;;;3.17;;
16330;SDS011;8275;48.206;16.340;2022-07-29T11:12:00;4.03;;;3.72;;
16330;SDS011;8275;48.206;16.340;2022-07-29T11:17:27;4.30;;;3.95;;
16330;SDS011;8275;48.206;16.340;2022-07-29T11:20:30;4.80;;;3.75;;
16330;SDS011;8275;48.206;16.340;2022-07-29T11:23:23;3.85;;;3.55;;
16330;SDS011;8275;48.206;16.340;2022-07-29T11:26:16;5.38;;;4.80;;
16330;SDS011;8275;48.206;16.340;2022-07-29T11:28:50;4.35;;;4.05;;
16330;SDS011;8275;48.206;16.340;2022-07-29T11:31:37;4.68;;;3.65;;
16330;SDS011;8275;48.206;16.340;2022-07-29T11:34:20;3.33;;;3.05;;
16330;SDS011;8275;48.206;16.340;2022-07-29T11:40:12;4.07;;;3.78;;
16330;SDS011;8275;48.206;16.340;2022-07-29T11:42:47;4.78;;;4.00;;
16330;SDS011;8275;48.206;16.340;2022-07-29T11:45:24;4.20;;;3.92;;
16330;SDS011;8275;48.206;16.340;2022-07-29T11:48:14;5.63;;;3.95;;
16330;SDS011;8275;48.206;16.340;2022-07-29T11:50:56;4.22;;;3.92;;
16330;SDS011;8275;48.206;16.340;2022-07-29T11:53:26;4.20;;;3.85;;
16330;SDS011;8275;48.206;16.340;2022-07-29T11:55:58;3.88;;;3.60;;
16330;SDS011;8275;48.206;16.340;2022-07-29T11:58:29;3.97;;;3.67;;
16330;SDS011;8275;48.206;16.340;2022-07-29T12:00:59;4.75;;;3.80;;
16330;SDS011;8275;48.206;16.340;2022-07-29T12:03:48;4.22;;;3.92;;
16330;SDS011;8275;48.206;16.340;2022-07-29T12:06:33;3.88;;;3.58;;
16330;SDS011;8275;48.206;16.340;2022-07-29T12:09:06;6.22;;;3.95;;
16330;SDS011;8275;48.206;16.340;2022-07-29T12:11:40;4.18;;;3.85;;
16330;SDS011;8275;48.206;16.340;2022-07-29T12:14:24;4.07;;;3.78;;
16330;SDS011;8275;48.206;16.340;2022-07-29T12:16:54;3.80;;;3.60;;
16330;SDS011;8275;48.206;16.340;2022-07-29T12:19:23;3.83;;;3.63;;
16330;SDS011;8275;48.206;16.340;2022-07-29T12:21:54;5.90;;;3.97;;
16330;SDS011;8275;48.206;16.340;2022-07-29T12:24:27;3.45;;;3.15;;
16330;SDS011;8275;48.206;16.340;2022-07-29T12:27:11;4.70;;;4.25;;
16330;SDS011;8275;48.206;16.340;2022-07-29T12:29:55;4.20;;;3.80;;
16330;SDS011;8275;48.206;16.340;2022-07-29T12:32:24;3.75;;;3.45;;
16330;SDS011;8275;48.206;16.340;2022-07-29T12:35:01;4.13;;;3.83;;
16330;SDS011;8275;48.206;16.340;2022-07-29T12:37:34;3.83;;;3.47;;
16330;SDS011;8275;48.206;16.340;2022-07-29T12:40:07;4.03;;;3.72;;
16330;SDS011;8275;48.206;16.340;2022-07-29T12:42:37;4.60;;;4.10;;
16330;SDS011;8275;48.206;16.340;2022-07-29T12:45:07;4.57;;;4.18;;
16330;SDS011;8275;48.206;16.340;2022-07-29T12:47:50;4.78;;;4.25;;
16330;SDS011;8275;48.206;16.340;2022-07-29T12:50:19;3.95;;;3.53;;
16330;SDS011;8275;48.206;16.340;2022-07-29T12:52:53;3.35;;;3.05;;
16330;SDS011;8275;48.206;16.340;2022-07-29T12:55:40;4.35;;;4.05;;
16330;SDS011;8275;48.206;16.340;2022-07-29T12:58:11;7.78;;;4.95;;
16330;SDS011;8275;48.206;16.340;2022-07-29T13:00:40;4.40;;;4.10;;
16330;SDS011;8275;48.206;16.340;2022-07-29T13:03:08;4.10;;;3.70;;
16330;SDS011;8275;48.206;16.340;2022-07-29T13:05:40;3.75;;;3.45;;
16330;SDS011;8275;48.206;16.340;2022-07-29T13:08:17;4.35;;;3.88;;
16330;SDS011;8275;48.206;16.340;2022-07-29T13:10:48;3.38;;;3.17;;
16330;SDS011;8275;48.206;16.340;2022-07-29T13:13:16;3.92;;;3.72;;
16330;SDS011;8275;48.206;16.340;2022-07-29T13:15:45;8.63;;;3.58;;
16330;SDS011;8275;48.206;16.340;2022-07-29T13:18:27;3.67;;;3.38;;
16330;SDS011;8275;48.206;16.340;2022-07-29T13:20:56;4.15;;;3.80;;
16330;SDS011;8275;48.206;16.340;2022-07-29T13:23:38;3.63;;;3.17;;
16330;SDS011;8275;48.206;16.340;2022-07-29T13:26:07;4.07;;;3.65;;
16330;SDS011;8275;48.206;16.340;2022-07-29T13:28:37;3.90;;;3.60;;
16330;SDS011;8275;48.206;16.340;2022-07-29T13:31:09;3.83;;;3.53;;
16330;SDS011;8275;48.206;16.340;2022-07-29T13:33:38;4.60;;;4.30;;
16330;SDS011;8275;48.206;16.340;2022-07-29T13:36:06;3.95;;;3.65;;
16330;SDS011;8275;48.206;16.340;2022-07-29T13:38:35;4.72;;;4.35;;
16330;SDS011;8275;48.206;16.340;2022-07-29T13:41:05;4.05;;;3.53;;
16330;SDS011;8275;48.206;16.340;2022-07-29T13:43:33;3.63;;;3.33;;
16330;SDS011;8275;48.206;16.340;2022-07-29T13:46:02;4.28;;;3.72;;
16330;SDS011;8275;48.206;16.340;2022-07-29T13:48:30;5.93;;;3.97;;
16330;SDS011;8275;48.206;16.340;2022-07-29T13:50:59;3.95;;;3.55;;
16330;SDS011;8275;48.206;16.340;2022-07-29T13:53:27;4.60;;;4.20;;
16330;SDS011;8275;48.206;16.340;2022-07-29T13:55:55;4.47;;;3.15;;
16330;SDS011;8275;48.206;16.340;2022-07-29T13:58:26;4.35;;;4.00;;
16330;SDS011;8275;48.206;16.340;2022-07-29T14:00:55;4.50;;;4.07;;
16330;SDS011;8275;48.206;16.340;2022-07-29T14:03:24;5.00;;;4.50;;
16330;SDS011;8275;48.206;16.340;2022-07-29T14:05:52;4.10;;;3.80;;
16330;SDS011;8275;48.206;16.340;2022-07-29T14:08:22;4.35;;;3.80;;
16330;SDS011;8275;48.206;16.340;2022-07-29T14:10:50;4.60;;;3.70;;
16330;SDS011;8275;48.206;16.340;2022-07-29T14:13:19;6.95;;;4.30;;
16330;SDS011;8275;48.206;16.340;2022-07-29T14:15:52;5.32;;;4.65;;
16330;SDS011;8275;48.206;16.340;2022-07-29T14:18:21;6.85;;;5.07;;
16330;SDS011;8275;48.206;16.340;2022-07-29T14:20:49;6.88;;;4.47;;
16330;SDS011;8275;48.206;16.340;2022-07-29T14:23:18;5.30;;;4.80;;
16330;SDS011;8275;48.206;16.340;2022-07-29T14:25:47;4.78;;;4.35;;
16330;SDS011;8275;48.206;16.340;2022-07-29T14:28:15;4.80;;;4.40;;
16330;SDS011;8275;48.206;16.340;2022-07-29T14:30:44;7.70;;;4.50;;
16330;SDS011;8275;48.206;16.340;2022-07-29T14:33:13;7.93;;;5.53;;
16330;SDS011;8275;48.206;16.340;2022-07-29T14:35:42;6.07;;;5.57;;
16330;SDS011;8275;48.206;16.340;2022-07-29T14:38:11;5.90;;;5.40;;
16330;SDS011;8275;48.206;16.340;2022-07-29T14:40:40;4.72;;;4.43;;
16330;SDS011;8275;48.206;16.340;2022-07-29T14:43:08;4.90;;;4.57;;
16330;SDS011;8275;48.206;16.340;2022-07-29T14:45:36;5.97;;;5.35;;
16330;SDS011;8275;48.206;16.340;2022-07-29T14:48:05;6.15;;;5.65;;
16330;SDS011;8275;48.206;16.340;2022-07-29T14:50:35;6.60;;;4.68;;
16330;SDS011;8275;48.206;16.340;2022-07-29T14:53:04;5.30;;;4.68;;
16330;SDS011;8275;48.206;16.340;2022-07-29T14:55:32;8.15;;;5.13;;
16330;SDS011;8275;48.206;16.340;2022-07-29T14:58:01;5.78;;;5.13;;
16330;SDS011;8275;48.206;16.340;2022-07-29T15:00:38;6.25;;;5.78;;
16330;SDS011;8275;48.206;16.340;2022-07-29T15:03:07;5.20;;;4.70;;
16330;SDS011;8275;48.206;16.340;2022-07-29T15:05:38;6.05;;;5.45;;
16330;SDS011;8275;48.206;16.340;2022-07-29T15:08:06;6.18;;;5.68;;
16330;SDS011;8275;48.206;16.340;2022-07-29T15:10:35;5.10;;;4.70;;
16330;SDS011;8275;48.206;16.340;2022-07-29T15:13:04;5.28;;;4.75;;
16330;SDS011;8275;48.206;16.340;2022-07-29T15:15:32;7.40;;;6.65;;
16330;SDS011;8275;48.206;16.340;2022-07-29T15:18:01;6.68;;;6.18;;
16330;SDS011;8275;48.206;16.340;2022-07-29T15:20:29;7.93;;;7.22;;
16330;SDS011;8275;48.206;16.340;2022-07-29T15:22:59;5.32;;;4.93;;
16330;SDS011;8275;48.206;16.340;2022-07-29T15:25:27;4.43;;;4.00;;
16330;SDS011;8275;48.206;16.340;2022-07-29T15:27:56;5.15;;;4.72;;
16330;SDS011;8275;48.206;16.340;2022-07-29T15:30:29;10.77;;;6.13;;
16330;SDS011;8275;48.206;16.340;2022-07-29T15:33:00;5.30;;;4.80;;